• Join FlightAware (Why Join?)
  • Login
  • US Flag 
08:57AM EDT


 

Airport Tracker/Info


-or-


 

Live Flight TrackerFlight Track Log ✈ EJA951 ✈ 16-May-2013 ✈ KBCT - KSRQ

Flight Track Log - Related Links

Times and Time Zones

All times are in EDT time to prevent confusion due to time zone crossing. See the EJA951 flight status page for this flight to view local times or setup timezone preferences in your user account.

Time Position Orientation Groundspeed Altitude Reporting Facility
EDT Latitude Longitude Course Direction KTS MPH feet Rate Location/Type
06:29AM 26.4639 -80.2147 283° West 247 284 6,700  Level Miami Center
06:30AM 26.5211 -80.2628 323° Northwest 282 325 7,100 1,560 Climbing Miami Center
06:31AM 26.5461 -80.3586 286° West 281 323 9,900 1,860 Climbing Miami Center
06:32AM 26.5858 -80.4411 298° West 314 361 10,900 1,260 Climbing Miami Center
06:33AM 26.6589 -80.6854 286° West  Level FlightAware Approximate
06:33AM 26.6353 -80.5494 297° West 356 410 12,500  Level Miami Center
06:34AM 26.6833 -80.7995 283° West  Level FlightAware Approximate
06:34AM 26.6767 -80.6414 297° West 368 423 13,900  Level Miami Center
06:35AM 26.7261 -80.7453 298° West 374 430 15,200 1,020 Climbing Miami Center
06:36AM 26.7797 -80.8564 298° West 366 421 16,000 360 Climbing Miami Center
06:37AM 26.8247 -80.9558 297° West 387 445 16,000  Level Miami Center
06:38AM 26.8800 -81.0719 298° West 405 466 16,000  Level Miami Center
06:39AM 26.9369 -81.1972 297° West 412 474 16,000  Level Miami Center
06:40AM 26.9917 -81.3158 297° West 417 480 16,000  Level Miami Center
06:41AM 27.0364 -81.4272 294° West 417 480 16,000  Level Miami Center
06:42AM 27.0908 -81.5458 297° West 427 491 16,000 -600 Level Miami Center
06:43AM 27.1436 -81.6600 297° West 422 486 14,800 -1,740 Descending Miami Center
06:44AM 27.1942 -81.7717 297° West 416 479 12,600 -2,100 Descending Miami Center
06:45AM 27.2428 -81.8742 298° West 397 457 10,600 -1,800 Descending Miami Center
06:46AM 27.2667 -81.9664 286° West 349 402 9,000 -1,620 Descending Miami Center
06:47AM 27.2864 -82.0536 284° West 310 357 7,500 -1,560 Descending Miami Center
06:48AM 27.3064 -82.1411 284° West 293 337 5,900 -1,260 Descending Miami Center
06:49AM 27.3475 -82.2153 302° West 282 325 5,000 -480 Descending Miami Center
06:50AM 27.3928 -82.2828 307° West 275 316 5,000 -240 Level Miami Center
06:51AM 27.4381 -82.3553 305° West 280 322 4,600 -600 Descending Miami Center
06:52AM 27.4814 -82.4250 305° West 280 322 3,900 -600 Descending Miami Center
06:53AM 27.5122 -82.4875 299° West 258 297 3,500 -900 Descending Miami Center
06:54AM 27.4850 -82.5447 242° Southwest 199 229 2,100 -1,380 Descending Miami Center
06:54AM 27.4667 -82.5667 227° Southwest 171 197 1,800 -840 Descending Tampa TRACON
06:55AM 27.4500 -82.5833 222° Southwest 136 157 1,200 -720 Descending Tampa TRACON
06:56AM 27.4167 -82.5833 180° South 121 139 500 -720 Descending Tampa TRACON
06:58AM 27.3954 -82.5544 188° South  Level Estimated
07:05AM 27.3954 -82.5544 188° South  Level Estimated
07:06AM 27.3954 -82.5544 188° South  Level Estimated